Time;durP1;ratioP1;P1;durP2;ratioP2;P2;SDS_P1;SDS_P2;PMS_P1;PMS_P2;Temp;Humidity;BMP_temperature;BMP_pressure;BME280_temperature;BME280_humidity;BME280_pressure;Samples;Min_cycle;Max_cycle;Signal;HPM_P1;HPM_P2
2022/03/02 07:59:09;;;;;;;20.60;14.05;;;;;;;5.36;50.49;102320.56;5280059;28;20401;-80
2022/03/02 08:01:41;;;;;;;17.30;13.15;;;;;;;5.41;49.92;102312.47;5280722;28;20403;-81
2022/03/02 08:04:14;;;;;;;20.77;13.05;;;;;;;5.47;48.95;102313.50;5261079;28;20033;-82
2022/03/02 08:06:45;;;;;;;19.70;13.13;;;;;;;5.50;49.70;102315.84;5239561;28;20025;-81
2022/03/02 08:09:16;;;;;;;19.95;14.05;;;;;;;5.60;49.61;102305.19;5244964;28;20022;-80
2022/03/02 08:11:48;;;;;;;19.55;14.15;;;;;;;5.59;49.98;102307.09;5254089;28;20025;-80
2022/03/02 08:14:23;;;;;;;17.85;13.75;;;;;;;5.56;49.30;102306.69;5240562;28;20032;-81
2022/03/02 08:16:55;;;;;;;21.52;13.23;;;;;;;5.54;49.38;102320.66;5259500;28;20128;-81
2022/03/02 08:19:33;;;;;;;17.30;13.52;;;;;;;5.70;48.86;102305.56;5259627;28;20104;-81
2022/03/02 08:22:09;;;;;;;18.35;13.30;;;;;;;5.82;49.72;102313.94;5252292;28;20121;-80
2022/03/02 08:25:03;;;;;;;16.50;13.32;;;;;;;5.95;50.00;102305.59;5258060;28;20018;-79
2022/03/02 08:27:38;;;;;;;18.88;13.18;;;;;;;5.97;48.73;102311.75;5258543;28;20059;-80
2022/03/02 08:30:13;;;;;;;16.65;12.60;;;;;;;6.07;49.86;102312.09;5243248;28;20061;-81
2022/03/02 08:32:47;;;;;;;26.80;19.52;;;;;;;6.07;48.87;102312.09;5238669;28;20080;-81
2022/03/02 08:35:19;;;;;;;21.80;16.48;;;;;;;6.14;49.68;102311.22;5237683;28;20064;-80
2022/03/02 08:37:50;;;;;;;19.52;13.52;;;;;;;6.21;49.34;102310.09;5238528;28;20041;-81
2022/03/02 08:40:22;;;;;;;15.35;12.38;;;;;;;6.25;48.61;102302.19;5239255;28;20053;-81
2022/03/02 08:42:55;;;;;;;18.42;13.00;;;;;;;6.42;48.68;102308.84;5246590;28;20021;-80
2022/03/02 08:45:27;;;;;;;16.48;13.73;;;;;;;6.45;48.12;102299.28;5274683;28;20029;-80
2022/03/02 08:48:04;;;;;;;19.05;12.93;;;;;;;6.47;46.82;102302.66;5238869;28;20105;-80
2022/03/02 08:50:36;;;;;;;16.92;12.57;;;;;;;6.46;47.19;102301.78;5237978;28;20017;-80
2022/03/02 08:53:12;;;;;;;14.88;12.88;;;;;;;6.58;47.35;102303.81;5238371;28;20059;-80
2022/03/02 08:55:43;;;;;;;;;;;;;;;6.72;48.60;102305.34;5240292;28;20029;-80
2022/03/02 08:58:15;;;;;;;16.90;12.32;;;;;;;6.58;47.35;102299.13;5258396;28;20353;-80
2022/03/02 09:00:51;;;;;;;19.33;14.60;;;;;;;6.80;50.04;102298.69;5258425;28;20029;-75
2022/03/02 09:03:23;;;;;;;17.38;12.52;;;;;;;6.77;46.38;102299.16;5256951;28;20096;-74
2022/03/02 09:05:55;;;;;;;18.33;13.70;;;;;;;6.79;46.92;102300.59;5242658;28;20034;-75
2022/03/02 09:08:26;;;;;;;14.40;11.13;;;;;;;7.31;58.10;102294.66;5235168;28;20030;-76
2022/03/02 09:10:59;;;;;;;16.48;12.23;;;;;;;7.15;48.02;102290.63;5222951;28;20547;-73
2022/03/02 09:13:30;;;;;;;14.70;12.23;;;;;;;7.27;50.92;102285.19;5232311;28;20108;-73
2022/03/02 09:16:02;;;;;;;13.75;11.13;;;;;;;7.62;55.99;102285.34;5238280;28;20113;-73
2022/03/02 09:18:34;;;;;;;15.70;11.35;;;;;;;7.84;56.84;102282.88;5243255;28;20029;-74
2022/03/02 09:21:06;;;;;;;13.88;10.27;;;;;;;7.86;52.72;102290.94;5235224;28;20037;-74
2022/03/02 09:23:41;;;;;;;14.30;11.23;;;;;;;7.89;53.15;102288.53;5253581;28;20104;-74
2022/03/02 09:26:15;;;;;;;15.32;12.00;;;;;;;7.83;46.69;102282.03;5243895;28;20031;-74
2022/03/02 09:28:53;;;;;;;14.30;11.68;;;;;;;7.82;45.20;102288.66;5227384;28;20358;-74
2022/03/02 09:31:26;;;;;;;16.45;12.40;;;;;;;7.77;44.22;102288.50;5238692;28;20044;-75
2022/03/02 09:33:58;;;;;;;13.85;10.73;;;;;;;7.92;43.87;102281.69;5227033;28;20061;-76
2022/03/02 09:36:34;;;;;;;15.50;12.02;;;;;;;7.91;42.42;102283.63;5225758;28;20026;-77
2022/03/02 09:39:08;;;;;;;13.40;11.25;;;;;;;7.86;41.14;102275.19;5238621;28;20030;-77
2022/03/02 09:41:49;;;;;;;16.70;11.63;;;;;;;7.89;41.16;102279.41;5229247;28;20030;-77
2022/03/02 09:44:25;;;;;;;11.05;9.60;;;;;;;7.89;42.13;102273.88;5239952;28;20116;-74
2022/03/02 09:46:59;;;;;;;15.70;11.27;;;;;;;7.88;41.51;102277.72;5234307;28;20152;-74
2022/03/02 09:49:34;;;;;;;12.20;10.60;;;;;;;7.95;41.66;102271.03;5223103;28;20026;-73
2022/03/02 09:52:09;;;;;;;13.05;10.40;;;;;;;8.10;42.53;102276.06;5222869;28;20519;-74
2022/03/02 09:54:44;;;;;;;16.40;10.73;;;;;;;8.34;47.49;102265.88;5223439;28;20108;-75
2022/03/02 09:57:21;;;;;;;14.73;10.90;;;;;;;8.42;50.76;102257.25;5242450;28;20132;-75
2022/03/02 09:59:54;;;;;;;14.10;11.32;;;;;;;8.29;41.48;102260.25;5242516;28;20040;-77
2022/03/02 10:02:40;;;;;;;17.33;12.20;;;;;;;8.40;46.17;102261.34;5239104;28;20029;-74
2022/03/02 10:05:16;;;;;;;15.27;12.40;;;;;;;8.46;41.85;102260.38;5228394;28;20465;-75
2022/03/02 10:08:02;;;;;;;12.80;10.38;;;;;;;8.49;40.71;102263.50;5221972;28;20030;-75
2022/03/02 10:10:40;;;;;;;13.32;11.55;;;;;;;8.58;42.27;102254.84;5223020;28;20053;-76
2022/03/02 10:13:14;;;;;;;12.55;9.20;;;;;;;9.08;50.03;102260.63;5236947;28;20037;-76
2022/03/02 10:15:46;;;;;;;13.18;10.63;;;;;;;8.99;42.50;102262.09;5239004;28;20164;-75
2022/03/02 10:18:18;;;;;;;13.52;11.20;;;;;;;9.16;46.82;102258.59;5222475;28;20109;-75
2022/03/02 10:20:53;;;;;;;15.95;11.98;;;;;;;8.92;39.59;102266.91;5223908;28;20029;-75
2022/03/02 10:23:33;;;;;;;15.15;10.20;;;;;;;9.14;43.34;102261.56;5250012;28;20031;-75
2022/03/02 10:26:12;;;;;;;12.07;10.32;;;;;;;9.26;47.60;102262.38;5248817;28;20120;-75
2022/03/02 10:28:59;;;;;;;14.65;11.93;;;;;;;9.22;41.94;102254.81;5229175;28;20029;-75
2022/03/02 10:31:56;;;;;;;13.63;9.40;;;;;;;9.38;44.06;102253.19;5227523;28;20477;-78
2022/03/02 10:34:38;;;;;;;13.15;10.02;;;;;;;9.46;47.53;102250.00;5255218;28;20025;-80
2022/03/02 10:37:18;;;;;;;13.20;10.43;;;;;;;9.40;40.51;102239.94;5263576;28;20101;-75
2022/03/02 10:40:12;;;;;;;15.95;10.32;;;;;;;9.41;38.95;102252.69;5225747;28;20030;-75
2022/03/02 10:43:00;;;;;;;13.23;10.98;;;;;;;9.37;43.80;102244.03;5248735;28;20029;-75
2022/03/02 10:45:31;;;;;;;21.50;16.83;;;;;;;9.36;39.17;102245.97;5220892;28;20176;-75
2022/03/02 10:48:19;;;;;;;12.07;9.30;;;;;;;9.54;40.38;102244.94;5219765;28;20112;-75
2022/03/02 10:50:55;;;;;;;12.98;10.55;;;;;;;9.54;38.44;102244.94;5238507;28;20324;-74
2022/03/02 10:53:30;;;;;;;12.52;10.65;;;;;;;9.51;38.14;102245.44;5227577;28;20030;-74
2022/03/02 10:56:05;;;;;;;12.93;10.30;;;;;;;9.61;40.24;102246.69;5234876;28;20037;-75
2022/03/02 10:58:39;;;;;;;12.57;10.40;;;;;;;9.64;37.84;102246.19;5247287;28;20056;-74
2022/03/02 11:01:11;;;;;;;13.02;10.40;;;;;;;9.67;37.53;102243.78;5261483;28;20036;-74
2022/03/02 11:03:44;;;;;;;13.10;9.70;;;;;;;9.79;42.74;102247.31;5220461;28;20038;-74
2022/03/02 11:06:16;;;;;;;12.90;10.45;;;;;;;9.65;36.76;102242.34;5221120;28;20026;-74
2022/03/02 11:08:49;;;;;;;11.80;10.60;;;;;;;9.78;40.54;102233.72;5227210;28;20461;-74
2022/03/02 11:11:25;;;;;;;14.43;11.32;;;;;;;9.87;37.64;102234.97;5257042;28;20092;-74
2022/03/02 11:13:56;;;;;;;14.98;11.20;;;;;;;9.88;37.39;102233.03;5221328;28;20026;-77
2022/03/02 11:16:27;;;;;;;11.18;10.00;;;;;;;9.95;38.81;102231.78;5220397;28;20029;-78
2022/03/02 11:19:13;;;;;;;13.05;9.52;;;;;;;10.21;44.36;102218.34;5221504;28;20099;-76
2022/03/02 11:21:45;;;;;;;11.77;10.10;;;;;;;10.10;37.56;102217.34;5224683;28;20069;-78
2022/03/02 11:24:17;;;;;;;14.63;9.95;;;;;;;10.32;45.63;102214.63;5235687;28;20057;-78
2022/03/02 11:26:48;;;;;;;13.25;10.80;;;;;;;10.12;37.10;102212.34;5240491;28;20034;-79
2022/03/02 11:29:20;;;;;;;13.90;9.48;;;;;;;10.32;43.78;102214.63;5235619;28;20026;-77
2022/03/02 11:31:54;;;;;;;14.68;10.57;;;;;;;10.27;38.71;102199.84;5240527;28;20037;-80
2022/03/02 11:34:29;;;;;;;12.70;9.00;;;;;;;10.41;41.56;102195.66;5239980;28;20030;-78
2022/03/02 11:37:07;;;;;;;13.40;10.80;;;;;;;10.44;38.00;102195.97;5236081;28;20037;-84
2022/03/02 11:39:43;;;;;;;11.57;9.43;;;;;;;10.45;38.34;102192.09;5231598;28;20079;-79
2022/03/02 11:42:17;;;;;;;13.40;10.23;;;;;;;10.47;37.25;102194.63;5238263;28;20412;-78
2022/03/02 11:44:49;;;;;;;13.25;9.77;;;;;;;10.52;37.18;102191.06;5248309;28;20075;-76
2022/03/02 11:47:21;;;;;;;14.43;10.93;;;;;;;10.54;39.67;102186.13;5225281;28;20045;-79
2022/03/02 11:49:55;;;;;;;12.13;9.13;;;;;;;10.65;39.27;102194.31;5227892;28;20097;-80
2022/03/02 11:52:29;;;;;;;12.15;9.55;;;;;;;10.77;39.67;102191.41;5233897;28;20157;-75
2022/03/02 11:55:10;;;;;;;15.55;10.82;;;;;;;10.75;39.11;102181.66;5220747;28;20532;-76
2022/03/02 11:57:48;;;;;;;11.73;10.57;;;;;;;10.80;38.34;102179.78;5221207;28;20103;-76
2022/03/02 12:00:22;;;;;;;10.43;7.30;;;;;;;11.07;46.16;102177.06;5239786;28;20038;-76
2022/03/02 12:02:57;;;;;;;12.63;9.87;;;;;;;11.11;38.78;102174.59;5236617;28;20492;-76
2022/03/02 12:05:31;;;;;;;14.43;10.60;;;;;;;11.18;36.55;102180.78;5225391;28;20434;-75
2022/03/02 12:08:08;;;;;;;14.80;10.65;;;;;;;11.21;36.60;102171.91;5233514;28;20513;-76
2022/03/02 12:10:53;;;;;;;13.80;10.73;;;;;;;11.21;35.91;102171.91;5220447;28;20176;-76
2022/03/02 12:13:24;;;;;;;12.73;9.80;;;;;;;11.31;40.67;102166.47;5218939;28;20026;-75
2022/03/02 12:15:55;;;;;;;12.30;10.43;;;;;;;11.36;37.20;102162.06;5220380;28;20080;-76
2022/03/02 12:18:26;;;;;;;13.43;10.00;;;;;;;11.34;34.95;102165.09;5228113;28;20021;-77
2022/03/02 12:20:58;;;;;;;9.10;7.32;;;;;;;11.39;39.93;102161.53;5228487;28;20202;-75
2022/03/02 12:23:34;;;;;;;13.35;9.75;;;;;;;11.22;34.08;102162.50;5234664;28;20026;-74
2022/03/02 12:26:05;;;;;;;11.40;9.18;;;;;;;11.24;33.76;102151.94;5227744;28;20030;-75
2022/03/02 12:28:36;;;;;;;14.60;11.85;;;;;;;11.27;34.88;102153.38;5238324;28;20116;-75
2022/03/02 12:31:12;;;;;;;11.82;9.82;;;;;;;11.40;34.19;102147.41;5240071;28;20398;-76
2022/03/02 12:33:43;;;;;;;;;;;;;;;11.61;38.59;102145.63;5241401;28;20100;-75
2022/03/02 12:36:15;;;;;;;14.23;10.73;;;;;;;11.56;34.95;102134.47;5236221;28;19921;-74
2022/03/02 12:38:46;;;;;;;12.35;9.10;;;;;;;11.66;35.15;102144.84;5237867;28;20307;-76
2022/03/02 12:41:17;;;;;;;13.55;9.32;;;;;;;11.73;33.79;102124.06;5239779;28;20079;-75
2022/03/02 12:43:49;;;;;;;19.17;10.40;;;;;;;11.83;35.60;102122.44;5238463;28;20036;-76
2022/03/02 12:46:22;;;;;;;73.43;60.35;;;;;;;11.86;34.17;102121.91;5243617;28;20017;-76
2022/03/02 12:48:55;;;;;;;14.45;11.13;;;;;;;11.84;33.27;102122.19;5244238;28;20074;-77
2022/03/02 12:51:28;;;;;;;12.63;10.73;;;;;;;11.96;33.70;102113.66;5249284;28;20034;-78
2022/03/02 12:54:00;;;;;;;11.57;9.70;;;;;;;12.05;35.75;102112.06;5235116;28;20036;-77
2022/03/02 12:56:32;;;;;;;11.82;8.00;;;;;;;12.21;38.04;102101.03;5222781;28;20457;-77
2022/03/02 12:59:03;;;;;;;13.50;8.43;;;;;;;12.26;33.41;102104.66;5231546;28;20080;-79
2022/03/02 13:01:35;;;;;;;13.43;9.23;;;;;;;12.30;31.21;102100.25;5243192;28;20025;-82
2022/03/02 13:04:12;;;;;;;13.80;8.82;;;;;;;12.36;33.12;102098.31;5244807;28;20034;-80
2022/03/02 13:06:54;;;;;;;13.10;8.88;;;;;;;12.36;30.32;102098.31;5244408;28;20069;-80
2022/03/02 13:09:31;;;;;;;15.60;9.80;;;;;;;12.47;30.69;102100.03;5244141;28;20122;-80
2022/03/02 13:12:25;;;;;;;11.57;10.10;;;;;;;12.57;31.91;102093.66;5230832;28;20539;-79
2022/03/02 13:14:57;;;;;;;14.40;9.93;;;;;;;12.57;31.26;102094.50;5228010;28;20045;-82
2022/03/02 13:17:28;;;;;;;13.18;9.02;;;;;;;12.53;30.77;102085.06;5225174;28;20160;-79
2022/03/02 13:19:59;;;;;;;10.27;9.00;;;;;;;12.56;30.92;102087.28;5227347;28;20377;-78
2022/03/02 13:22:33;;;;;;;13.52;9.70;;;;;;;12.75;31.17;102089.56;5223523;28;20033;-77
2022/03/02 13:25:11;;;;;;;10.13;9.02;;;;;;;12.95;32.28;102086.81;5222460;28;20026;-77
2022/03/02 13:28:14;;;;;;;14.73;10.18;;;;;;;13.19;31.83;102077.94;5224198;28;20358;-76
2022/03/02 13:31:07;;;;;;;13.73;8.13;;;;;;;13.34;31.84;102080.75;5211392;28;20405;-76
2022/03/02 13:33:57;;;;;;;14.20;8.32;;;;;;;13.39;30.81;102079.94;5224884;28;20022;-79
2022/03/02 13:36:34;;;;;;;10.13;8.75;;;;;;;13.21;30.22;102075.72;5225079;28;20026;-79
2022/03/02 13:39:07;;;;;;;12.43;9.10;;;;;;;13.33;30.11;102067.94;5224812;28;20560;-77
2022/03/02 13:41:54;;;;;;;10.82;9.57;;;;;;;13.35;33.40;102067.69;5235926;28;20021;-77
2022/03/02 13:44:25;;;;;;;10.75;9.07;;;;;;;13.21;32.67;102070.13;5223056;28;20469;-77
2022/03/02 13:47:08;;;;;;;11.02;8.00;;;;;;;13.30;32.04;102065.72;5223506;28;20026;-82
2022/03/02 13:49:54;;;;;;;16.38;13.63;;;;;;;13.07;30.31;102061.50;5234748;28;20029;-85
2022/03/02 13:52:26;;;;;;;11.98;9.85;;;;;;;13.16;31.76;102061.78;5237981;28;20034;-87
2022/03/02 13:55:12;;;;;;;10.57;9.47;;;;;;;13.28;32.04;102054.03;5242177;28;20330;-81
2022/03/02 13:57:43;;;;;;;12.90;9.73;;;;;;;13.22;32.04;102052.31;5224607;28;20391;-73
2022/03/02 14:00:18;;;;;;;12.52;9.75;;;;;;;13.18;32.05;102060.38;5223977;28;20129;-81
2022/03/02 14:02:55;;;;;;;12.82;10.57;;;;;;;13.04;32.56;102051.75;5229520;28;20054;-81
2022/03/02 14:05:27;;;;;;;11.65;9.75;;;;;;;13.25;34.97;102051.75;5244208;28;20021;-80
2022/03/02 14:08:07;;;;;;;14.25;11.38;;;;;;;13.12;33.44;102050.38;5244223;28;20021;-81
2022/03/02 14:10:39;;;;;;;11.23;9.10;;;;;;;13.17;38.83;102053.16;5256183;28;20396;-75
2022/03/02 14:13:11;;;;;;;26.70;11.15;;;;;;;13.02;32.83;102044.78;5263588;28;20017;-81
2022/03/02 14:15:44;;;;;;;12.77;11.13;;;;;;;13.11;33.59;102047.84;5261309;28;20025;-84
2022/03/02 14:18:17;;;;;;;25.98;21.05;;;;;;;13.12;40.18;102046.75;5232074;28;20041;-84
2022/03/02 14:20:49;;;;;;;16.88;10.65;;;;;;;13.12;34.07;102036.44;5241231;28;20030;-78
2022/03/02 14:23:20;;;;;;;14.73;10.45;;;;;;;13.25;34.02;102032.25;5245866;28;20533;-83
2022/03/02 14:25:53;;;;;;;12.07;9.55;;;;;;;13.10;32.97;102032.25;5223809;28;20030;-77
2022/03/02 14:28:24;;;;;;;13.93;10.52;;;;;;;13.18;33.52;102043.69;5243354;28;20075;-84
2022/03/02 14:30:58;;;;;;;17.75;10.82;;;;;;;13.08;32.73;102035.31;5244320;28;20448;-79
2022/03/02 14:33:32;;;;;;;14.30;12.73;;;;;;;13.26;32.70;102029.22;5223741;28;20080;-82
2022/03/02 14:36:03;;;;;;;10.35;9.25;;;;;;;13.21;37.28;102022.78;5227024;28;20040;-83
2022/03/02 14:38:35;;;;;;;12.63;9.70;;;;;;;13.36;34.41;102025.59;5230068;28;20045;-82
2022/03/02 14:41:09;;;;;;;12.50;9.70;;;;;;;13.36;35.88;102019.19;5238309;28;20075;-82
2022/03/02 14:43:40;;;;;;;12.95;8.98;;;;;;;13.30;34.66;102028.69;5231441;28;20026;-78
2022/03/02 14:46:13;;;;;;;13.57;9.70;;;;;;;13.18;34.05;102018.59;5224634;28;20022;-76
2022/03/02 14:48:45;;;;;;;12.52;9.38;;;;;;;13.11;32.80;102022.78;5222746;28;20072;-76
2022/03/02 14:51:16;;;;;;;16.58;10.38;;;;;;;13.14;32.13;102023.09;5230968;28;20371;-77
2022/03/02 14:53:48;;;;;;;12.90;9.68;;;;;;;13.18;34.21;102015.81;5230417;28;20034;-73
2022/03/02 14:56:21;;;;;;;16.77;11.55;;;;;;;13.27;32.45;102014.19;5236982;28;20052;-75
2022/03/02 14:58:53;;;;;;;14.05;10.98;;;;;;;13.25;32.49;102008.03;5241400;28;20065;-75
2022/03/02 15:01:29;;;;;;;16.92;10.88;;;;;;;13.32;32.46;102004.13;5239393;28;20072;-75
2022/03/02 15:04:04;;;;;;;16.38;9.75;;;;;;;13.17;31.62;102003.03;5241524;28;20487;-74
2022/03/02 15:06:38;;;;;;;12.75;8.68;;;;;;;13.31;35.19;102008.88;5228777;28;20129;-74
2022/03/02 15:09:10;;;;;;;10.68;9.45;;;;;;;13.38;32.42;102006.66;5220004;28;20030;-74
2022/03/02 15:11:44;;;;;;;12.20;10.68;;;;;;;13.46;33.93;101999.69;5239785;28;20041;-74
2022/03/02 15:17:13;;;;;;;13.98;9.95;;;;;;;13.37;31.94;102002.22;5225293;28;20026;-73
2022/03/02 15:19:47;;;;;;;10.43;9.35;;;;;;;13.45;31.97;101998.00;5235470;28;20431;-73
2022/03/02 15:22:24;;;;;;;16.35;9.82;;;;;;;13.40;33.04;101995.25;5221307;28;20022;-73
2022/03/02 15:24:56;;;;;;;12.77;8.57;;;;;;;13.41;35.03;101996.91;5237890;28;20096;-75
2022/03/02 15:27:29;;;;;;;12.73;10.40;;;;;;;13.36;32.75;101989.38;5224831;28;20021;-74
2022/03/02 15:30:13;;;;;;;12.52;9.65;;;;;;;13.27;32.77;101989.13;5232007;28;20099;-77
2022/03/02 15:32:44;;;;;;;12.73;9.73;;;;;;;13.34;33.84;101986.03;5224770;28;20076;-75
2022/03/02 15:35:19;;;;;;;15.73;10.50;;;;;;;13.19;33.93;101978.50;5221329;28;20026;-81
2022/03/02 15:37:51;;;;;;;14.75;10.23;;;;;;;13.10;33.30;101974.59;5219446;28;20037;-74
2022/03/02 15:40:25;;;;;;;13.13;10.75;;;;;;;12.99;35.77;101976.56;5220543;28;20024;-76
2022/03/02 15:43:08;;;;;;;18.25;14.40;;;;;;;13.17;32.90;101977.94;5220542;28;20029;-75
2022/03/02 15:45:41;;;;;;;16.33;13.45;;;;;;;13.36;32.90;101969.88;5238168;28;20029;-79
2022/03/02 15:48:19;;;;;;;13.38;10.80;;;;;;;13.39;34.09;101971.25;5244998;28;20017;-75
2022/03/02 15:50:53;;;;;;;13.20;9.93;;;;;;;13.19;34.35;101967.38;5241342;28;20472;-75
2022/03/02 15:53:28;;;;;;;13.68;10.77;;;;;;;13.17;37.73;101957.63;5229166;28;20046;-78
2022/03/02 15:56:02;;;;;;;13.68;9.60;;;;;;;13.02;33.20;101955.69;5221279;28;20022;-80
2022/03/02 15:58:50;;;;;;;15.23;10.32;;;;;;;13.10;34.19;101957.06;5218980;28;20053;-79
2022/03/02 16:01:27;;;;;;;13.38;10.80;;;;;;;12.94;33.54;101959.84;5228084;28;20388;-80
2022/03/02 16:04:02;;;;;;;14.30;10.85;;;;;;;12.61;32.99;101962.06;5236146;28;20026;-76
2022/03/02 16:06:34;;;;;;;11.38;9.90;;;;;;;12.46;33.62;101956.47;5219478;28;20029;-72
2022/03/02 16:09:14;;;;;;;17.13;14.90;;;;;;;12.52;38.01;101954.53;5232899;28;20036;-71
2022/03/02 16:11:47;;;;;;;13.60;10.80;;;;;;;12.38;35.44;101962.59;5240228;28;20037;-68
2022/03/02 16:14:19;;;;;;;12.07;10.15;;;;;;;12.42;40.00;101960.06;5224618;28;20026;-69
2022/03/02 16:16:52;;;;;;;13.48;10.30;;;;;;;12.22;35.77;101955.28;5228428;28;20395;-71
2022/03/02 16:19:28;;;;;;;14.95;10.80;;;;;;;12.04;35.43;101954.69;5232472;28;20048;-78
2022/03/02 16:22:01;;;;;;;13.50;10.48;;;;;;;12.08;39.49;101947.47;5226776;28;20060;-77
2022/03/02 16:24:35;;;;;;;18.05;12.13;;;;;;;11.95;35.33;101950.75;5238564;28;20033;-77
2022/03/02 16:27:13;;;;;;;17.05;11.60;;;;;;;11.86;36.01;101942.13;5223446;28;20041;-77
2022/03/02 16:29:47;;;;;;;14.65;12.20;;;;;;;11.89;36.65;101949.09;5226878;28;20036;-78
2022/03/02 16:32:21;;;;;;;17.67;11.73;;;;;;;11.94;42.42;101955.50;5233603;28;20034;-75
2022/03/02 16:34:55;;;;;;;13.52;11.20;;;;;;;11.77;38.66;101951.22;5234926;28;20037;-74
2022/03/02 16:37:27;;;;;;;14.20;11.43;;;;;;;11.65;36.23;101955.03;5224199;28;20030;-73
2022/03/02 16:39:58;;;;;;;17.27;12.38;;;;;;;11.51;35.97;101954.69;5232674;28;20096;-75
2022/03/02 16:42:30;;;;;;;14.85;12.13;;;;;;;11.57;36.17;101951.94;5244480;28;20021;-77
2022/03/02 16:45:01;;;;;;;15.60;11.35;;;;;;;11.50;37.86;101943.84;5244951;28;20017;-77
2022/03/02 16:47:32;;;;;;;14.65;11.35;;;;;;;11.49;36.57;101950.50;5243850;28;20033;-78
2022/03/02 16:50:06;;;;;;;12.32;11.07;;;;;;;11.47;38.75;101949.94;5265264;28;20021;-78
2022/03/02 16:52:38;;;;;;;13.85;11.30;;;;;;;11.44;36.40;101947.69;5241744;28;20564;-78
2022/03/02 16:55:11;;;;;;;12.35;9.35;;;;;;;11.57;41.89;101947.22;5223010;28;20109;-77
2022/03/02 16:57:43;;;;;;;18.13;12.93;;;;;;;11.45;41.04;101953.00;5223655;28;20485;-79
2022/03/02 17:00:37;;;;;;;14.35;11.32;;;;;;;11.34;38.38;101947.66;5224158;28;20049;-78
2022/03/02 17:03:18;;;;;;;13.70;10.95;;;;;;;11.30;38.93;101942.63;5224518;28;20088;-73
2022/03/02 17:05:51;;;;;;;16.13;11.93;;;;;;;11.15;38.02;101950.84;5233126;28;20026;-77
2022/03/02 17:08:22;;;;;;;14.80;10.90;;;;;;;11.15;37.60;101950.03;5233591;28;20025;-75
2022/03/02 17:10:56;;;;;;;14.20;12.15;;;;;;;11.18;37.75;101961.41;5234680;28;20031;-76
2022/03/02 17:13:31;;;;;;;21.02;15.88;;;;;;;11.09;40.41;101960.22;5244520;28;20126;-74
2022/03/02 17:16:03;;;;;;;16.88;14.07;;;;;;;11.04;38.94;101955.50;5239402;28;20357;-75
2022/03/02 17:18:34;;;;;;;15.10;12.40;;;;;;;10.87;38.37;101958.41;5225947;28;20160;-67
2022/03/02 17:21:06;;;;;;;16.63;12.13;;;;;;;10.65;38.57;101957.66;5223146;28;20105;-69
2022/03/02 17:23:37;;;;;;;19.05;12.60;;;;;;;10.60;39.41;101955.66;5231396;28;20097;-68
2022/03/02 17:26:09;;;;;;;16.58;13.18;;;;;;;10.45;39.17;101961.06;5229207;28;20472;-69
2022/03/02 17:28:40;;;;;;;18.30;13.40;;;;;;;10.55;39.20;101952.84;5238274;28;20567;-69
